sensor_id;sensor_type;location;lat;lon;timestamp;pressure;altitude;pressure_sealevel;temperature;humidity
12178;BME280;6152;48.728;9.256;2023-02-04T00:00:05;98295.75;;;6.88;100.00
12178;BME280;6152;48.728;9.256;2023-02-04T00:02:33;98289.72;;;6.87;100.00
12178;BME280;6152;48.728;9.256;2023-02-04T00:04:59;98283.78;;;6.84;100.00
12178;BME280;6152;48.728;9.256;2023-02-04T00:07:25;98282.91;;;6.83;100.00
12178;BME280;6152;48.728;9.256;2023-02-04T00:09:51;98277.75;;;6.83;100.00
12178;BME280;6152;48.728;9.256;2023-02-04T00:12:17;98281.28;;;6.81;100.00
12178;BME280;6152;48.728;9.256;2023-02-04T00:14:43;98270.91;;;6.82;100.00
12178;BME280;6152;48.728;9.256;2023-02-04T00:17:10;98275.38;;;6.76;100.00
12178;BME280;6152;48.728;9.256;2023-02-04T00:19:40;98275.53;;;6.70;100.00
12178;BME280;6152;48.728;9.256;2023-02-04T00:22:08;98275.53;;;6.70;100.00
12178;BME280;6152;48.728;9.256;2023-02-04T00:24:35;98269.38;;;6.75;100.00
12178;BME280;6152;48.728;9.256;2023-02-04T00:27:02;98278.09;;;6.71;100.00
12178;BME280;6152;48.728;9.256;2023-02-04T00:29:28;98270.22;;;6.76;100.00
12178;BME280;6152;48.728;9.256;2023-02-04T00:31:54;98278.00;;;6.74;100.00
12178;BME280;6152;48.728;9.256;2023-02-04T00:34:20;98274.75;;;6.66;100.00
12178;BME280;6152;48.728;9.256;2023-02-04T00:36:47;98283.44;;;6.65;100.00
12178;BME280;6152;48.728;9.256;2023-02-04T00:39:13;98296.22;;;6.70;100.00
12178;BME280;6152;48.728;9.256;2023-02-04T00:41:39;98289.38;;;6.69;100.00
12178;BME280;6152;48.728;9.256;2023-02-04T00:44:05;98294.38;;;6.75;100.00
12178;BME280;6152;48.728;9.256;2023-02-04T00:46:31;98294.31;;;6.76;100.00
12178;BME280;6152;48.728;9.256;2023-02-04T00:48:57;98301.19;;;6.79;100.00
12178;BME280;6152;48.728;9.256;2023-02-04T00:51:23;98301.09;;;6.82;100.00
12178;BME280;6152;48.728;9.256;2023-02-04T00:53:49;98301.72;;;6.90;100.00
12178;BME280;6152;48.728;9.256;2023-02-04T00:56:15;98300.03;;;6.89;100.00
12178;BME280;6152;48.728;9.256;2023-02-04T00:58:42;98305.13;;;6.92;100.00
12178;BME280;6152;48.728;9.256;2023-02-04T01:01:08;98308.47;;;6.95;100.00
12178;BME280;6152;48.728;9.256;2023-02-04T01:03:34;98316.28;;;6.94;100.00
12178;BME280;6152;48.728;9.256;2023-02-04T01:06:00;98314.59;;;6.93;100.00
12178;BME280;6152;48.728;9.256;2023-02-04T01:08:26;98319.78;;;6.93;100.00
12178;BME280;6152;48.728;9.256;2023-02-04T01:10:52;98322.56;;;6.85;100.00
12178;BME280;6152;48.728;9.256;2023-02-04T01:13:18;98328.88;;;6.74;100.00
12178;BME280;6152;48.728;9.256;2023-02-04T01:15:44;98323.78;;;6.71;100.00
12178;BME280;6152;48.728;9.256;2023-02-04T01:18:12;98322.16;;;6.68;100.00
12178;BME280;6152;48.728;9.256;2023-02-04T01:20:38;98319.84;;;6.56;100.00
12178;BME280;6152;48.728;9.256;2023-02-04T01:23:04;98312.25;;;6.51;100.00
12178;BME280;6152;48.728;9.256;2023-02-04T01:25:30;98315.69;;;6.50;100.00
12178;BME280;6152;48.728;9.256;2023-02-04T01:27:56;98326.97;;;6.48;100.00
12178;BME280;6152;48.728;9.256;2023-02-04T01:30:22;98325.44;;;6.39;100.00
12178;BME280;6152;48.728;9.256;2023-02-04T01:32:48;98333.13;;;6.42;100.00
12178;BME280;6152;48.728;9.256;2023-02-04T01:35:14;98346.16;;;6.38;100.00
12178;BME280;6152;48.728;9.256;2023-02-04T01:37:40;98348.81;;;6.35;100.00
12178;BME280;6152;48.728;9.256;2023-02-04T01:40:08;98344.47;;;6.37;100.00
12178;BME280;6152;48.728;9.256;2023-02-04T01:42:34;98352.16;;;6.40;100.00
12178;BME280;6152;48.728;9.256;2023-02-04T01:45:01;98350.44;;;6.40;100.00
12178;BME280;6152;48.728;9.256;2023-02-04T01:47:27;98352.84;;;6.46;100.00
12178;BME280;6152;48.728;9.256;2023-02-04T01:49:55;98353.91;;;6.38;100.00
12178;BME280;6152;48.728;9.256;2023-02-04T01:52:22;98353.97;;;6.36;100.00
12178;BME280;6152;48.728;9.256;2023-02-04T01:54:49;98347.16;;;6.32;100.00
12178;BME280;6152;48.728;9.256;2023-02-04T01:57:17;98347.16;;;6.32;100.00
12178;BME280;6152;48.728;9.256;2023-02-04T01:59:44;98346.38;;;6.30;100.00
12178;BME280;6152;48.728;9.256;2023-02-04T02:02:44;98344.69;;;6.28;100.00
12178;BME280;6152;48.728;9.256;2023-02-04T02:05:17;98351.47;;;6.32;100.00
12178;BME280;6152;48.728;9.256;2023-02-04T02:07:46;98355.03;;;6.28;100.00
12178;BME280;6152;48.728;9.256;2023-02-04T02:10:13;98366.22;;;6.28;100.00
12178;BME280;6152;48.728;9.256;2023-02-04T02:12:40;98366.28;;;6.25;100.00
12178;BME280;6152;48.728;9.256;2023-02-04T02:15:08;98367.84;;;6.32;100.00
12178;BME280;6152;48.728;9.256;2023-02-04T02:17:35;98369.75;;;6.24;100.00
12178;BME280;6152;48.728;9.256;2023-02-04T02:20:01;98371.59;;;6.19;100.00
12178;BME280;6152;48.728;9.256;2023-02-04T02:22:57;98369.81;;;6.21;100.00
12178;BME280;6152;48.728;9.256;2023-02-04T02:25:26;98375.91;;;6.20;100.00
12178;BME280;6152;48.728;9.256;2023-02-04T02:27:53;98380.25;;;6.18;100.00
12178;BME280;6152;48.728;9.256;2023-02-04T02:30:19;98381.06;;;6.20;100.00
12178;BME280;6152;48.728;9.256;2023-02-04T02:32:46;98391.59;;;6.11;100.00
12178;BME280;6152;48.728;9.256;2023-02-04T02:35:14;98395.91;;;6.12;100.00
12178;BME280;6152;48.728;9.256;2023-02-04T02:37:40;98389.22;;;6.02;100.00
12178;BME280;6152;48.728;9.256;2023-02-04T02:40:07;98397.06;;;5.99;100.00
12178;BME280;6152;48.728;9.256;2023-02-04T02:42:34;98400.50;;;5.98;100.00
12178;BME280;6152;48.728;9.256;2023-02-04T02:45:04;98392.69;;;6.01;100.00
12178;BME280;6152;48.728;9.256;2023-02-04T02:47:31;98380.78;;;5.94;100.00
12178;BME280;6152;48.728;9.256;2023-02-04T02:49:57;98380.91;;;5.89;100.00
12178;BME280;6152;48.728;9.256;2023-02-04T02:52:24;98385.94;;;5.94;100.00
12178;BME280;6152;48.728;9.256;2023-02-04T02:54:50;98384.38;;;5.87;100.00
12178;BME280;6152;48.728;9.256;2023-02-04T02:57:19;98389.66;;;5.81;100.00
12178;BME280;6152;48.728;9.256;2023-02-04T02:59:46;98391.53;;;5.73;100.00
12178;BME280;6152;48.728;9.256;2023-02-04T03:02:15;98383.75;;;5.76;100.00
12178;BME280;6152;48.728;9.256;2023-02-04T03:04:51;98391.66;;;5.68;100.00
12178;BME280;6152;48.728;9.256;2023-02-04T03:07:19;98402.06;;;5.64;100.00
12178;BME280;6152;48.728;9.256;2023-02-04T03:09:46;98409.03;;;5.58;100.00
12178;BME280;6152;48.728;9.256;2023-02-04T03:12:13;98409.09;;;5.55;100.00
12178;BME280;6152;48.728;9.256;2023-02-04T03:14:39;98422.84;;;5.57;100.00
12178;BME280;6152;48.728;9.256;2023-02-04T03:17:07;98417.69;;;5.57;100.00
12178;BME280;6152;48.728;9.256;2023-02-04T03:19:34;98423.78;;;5.55;100.00
12178;BME280;6152;48.728;9.256;2023-02-04T03:22:01;98425.56;;;5.51;100.00
12178;BME280;6152;48.728;9.256;2023-02-04T03:24:29;98421.34;;;5.47;100.00
12178;BME280;6152;48.728;9.256;2023-02-04T03:26:55;98431.53;;;5.53;100.00
12178;BME280;6152;48.728;9.256;2023-02-04T03:29:21;98438.41;;;5.54;100.00
12178;BME280;6152;48.728;9.256;2023-02-04T03:31:47;98437.56;;;5.54;100.00
12178;BME280;6152;48.728;9.256;2023-02-04T03:34:13;98433.25;;;5.54;100.00
12178;BME280;6152;48.728;9.256;2023-02-04T03:36:39;98444.38;;;5.56;100.00
12178;BME280;6152;48.728;9.256;2023-02-04T03:39:05;98452.22;;;5.52;100.00
12178;BME280;6152;48.728;9.256;2023-02-04T03:41:32;98459.16;;;5.50;100.00
12178;BME280;6152;48.728;9.256;2023-02-04T03:43:58;98455.69;;;5.51;100.00
12178;BME280;6152;48.728;9.256;2023-02-04T03:46:24;98457.34;;;5.53;100.00
12178;BME280;6152;48.728;9.256;2023-02-04T03:48:50;98459.94;;;5.55;100.00
12178;BME280;6152;48.728;9.256;2023-02-04T03:51:16;98454.75;;;5.55;100.00
12178;BME280;6152;48.728;9.256;2023-02-04T03:53:42;98469.47;;;5.50;100.00
12178;BME280;6152;48.728;9.256;2023-02-04T03:56:09;98466.09;;;5.46;100.00
12178;BME280;6152;48.728;9.256;2023-02-04T03:58:35;98465.91;;;5.55;100.00
12178;BME280;6152;48.728;9.256;2023-02-04T04:01:01;98477.22;;;5.51;100.00
12178;BME280;6152;48.728;9.256;2023-02-04T04:03:27;98473.81;;;5.48;100.00
12178;BME280;6152;48.728;9.256;2023-02-04T04:05:53;98475.56;;;5.47;100.00
12178;BME280;6152;48.728;9.256;2023-02-04T04:08:19;98479.88;;;5.47;100.00
12178;BME280;6152;48.728;9.256;2023-02-04T04:10:45;98479.94;;;5.42;100.00
12178;BME280;6152;48.728;9.256;2023-02-04T04:13:11;98483.38;;;5.41;100.00
12178;BME280;6152;48.728;9.256;2023-02-04T04:15:38;98485.88;;;5.47;100.00
12178;BME280;6152;48.728;9.256;2023-02-04T04:18:04;98486.81;;;5.43;100.00
12178;BME280;6152;48.728;9.256;2023-02-04T04:20:30;98485.91;;;5.46;100.00
12178;BME280;6152;48.728;9.256;2023-02-04T04:22:56;98484.19;;;5.45;100.00
12178;BME280;6152;48.728;9.256;2023-02-04T04:25:22;98486.69;;;5.49;100.00
12178;BME280;6152;48.728;9.256;2023-02-04T04:27:48;98480.72;;;5.47;100.00
12178;BME280;6152;48.728;9.256;2023-02-04T04:30:14;98474.84;;;5.39;100.00
12178;BME280;6152;48.728;9.256;2023-02-04T04:32:40;98479.19;;;5.37;100.00
12178;BME280;6152;48.728;9.256;2023-02-04T04:35:07;98490.31;;;5.41;100.00
12178;BME280;6152;48.728;9.256;2023-02-04T04:37:33;98486.88;;;5.40;100.00
12178;BME280;6152;48.728;9.256;2023-02-04T04:40:00;98481.72;;;5.40;100.00
12178;BME280;6152;48.728;9.256;2023-02-04T04:42:26;98495.53;;;5.36;100.00
12178;BME280;6152;48.728;9.256;2023-02-04T04:44:52;98493.88;;;5.34;100.00
12178;BME280;6152;48.728;9.256;2023-02-04T04:47:18;98495.59;;;5.33;100.00
12178;BME280;6152;48.728;9.256;2023-02-04T04:49:44;98510.22;;;5.34;100.00
12178;BME280;6152;48.728;9.256;2023-02-04T04:52:10;98509.38;;;5.32;100.00
12178;BME280;6152;48.728;9.256;2023-02-04T04:54:36;98503.22;;;5.39;100.00
12178;BME280;6152;48.728;9.256;2023-02-04T04:57:03;98500.81;;;5.30;100.00
12178;BME280;6152;48.728;9.256;2023-02-04T04:59:29;98506.78;;;5.32;100.00
12178;BME280;6152;48.728;9.256;2023-02-04T05:01:55;98497.31;;;5.34;100.00
12178;BME280;6152;48.728;9.256;2023-02-04T05:04:21;98487.00;;;5.34;100.00
12178;BME280;6152;48.728;9.256;2023-02-04T05:06:47;98498.13;;;5.35;100.00
12178;BME280;6152;48.728;9.256;2023-02-04T05:09:13;98499.91;;;5.33;100.00
12178;BME280;6152;48.728;9.256;2023-02-04T05:11:41;98499.06;;;5.32;100.00
12178;BME280;6152;48.728;9.256;2023-02-04T05:14:07;98503.41;;;5.29;100.00
12178;BME280;6152;48.728;9.256;2023-02-04T05:16:33;98507.78;;;5.25;100.00
12178;BME280;6152;48.728;9.256;2023-02-04T05:18:59;98507.78;;;5.25;100.00
12178;BME280;6152;48.728;9.256;2023-02-04T05:21:25;98501.75;;;5.26;100.00
12178;BME280;6152;48.728;9.256;2023-02-04T05:23:51;98506.84;;;5.29;100.00
12178;BME280;6152;48.728;9.256;2023-02-04T05:26:17;98506.16;;;5.20;100.00
12178;BME280;6152;48.728;9.256;2023-02-04T05:28:44;98506.16;;;5.18;100.00
12178;BME280;6152;48.728;9.256;2023-02-04T05:31:10;98507.94;;;5.16;100.00
12178;BME280;6152;48.728;9.256;2023-02-04T05:33:36;98506.28;;;5.12;100.00
12178;BME280;6152;48.728;9.256;2023-02-04T05:36:02;98513.91;;;5.20;100.00
12178;BME280;6152;48.728;9.256;2023-02-04T05:38:28;98519.88;;;5.23;100.00
12178;BME280;6152;48.728;9.256;2023-02-04T05:40:54;98523.31;;;5.22;100.00
12178;BME280;6152;48.728;9.256;2023-02-04T05:43:20;98523.31;;;5.22;100.00
12178;BME280;6152;48.728;9.256;2023-02-04T05:45:46;98525.16;;;5.14;100.00
12178;BME280;6152;48.728;9.256;2023-02-04T05:48:12;98515.69;;;5.15;100.00
12178;BME280;6152;48.728;9.256;2023-02-04T05:50:38;98526.13;;;5.07;100.00
12178;BME280;6152;48.728;9.256;2023-02-04T05:53:04;98516.78;;;5.03;100.00
12178;BME280;6152;48.728;9.256;2023-02-04T05:55:31;98516.72;;;5.06;100.00
12178;BME280;6152;48.728;9.256;2023-02-04T05:57:57;98514.16;;;5.04;100.00
12178;BME280;6152;48.728;9.256;2023-02-04T06:00:23;98511.59;;;5.03;100.00
12178;BME280;6152;48.728;9.256;2023-02-04T06:02:49;98513.41;;;4.98;100.00
12178;BME280;6152;48.728;9.256;2023-02-04T06:05:15;98515.06;;;5.02;100.00
12178;BME280;6152;48.728;9.256;2023-02-04T06:07:43;98522.84;;;4.97;100.00
12178;BME280;6152;48.728;9.256;2023-02-04T06:10:09;98536.66;;;4.96;100.00
12178;BME280;6152;48.728;9.256;2023-02-04T06:12:36;98550.38;;;4.98;100.00
12178;BME280;6152;48.728;9.256;2023-02-04T06:15:02;98548.63;;;4.99;100.00
12178;BME280;6152;48.728;9.256;2023-02-04T06:17:28;98559.78;;;5.01;100.00
12178;BME280;6152;48.728;9.256;2023-02-04T06:19:54;98569.34;;;4.96;100.00
12178;BME280;6152;48.728;9.256;2023-02-04T06:22:20;98571.00;;;4.97;100.00
12178;BME280;6152;48.728;9.256;2023-02-04T06:24:49;98571.97;;;4.90;100.00
12178;BME280;6152;48.728;9.256;2023-02-04T06:27:15;98577.13;;;4.90;100.00
12178;BME280;6152;48.728;9.256;2023-02-04T06:29:48;98578.84;;;4.91;100.00
12178;BME280;6152;48.728;9.256;2023-02-04T06:32:16;98590.06;;;4.88;100.00
12178;BME280;6152;48.728;9.256;2023-02-04T06:34:42;98589.16;;;4.91;100.00
12178;BME280;6152;48.728;9.256;2023-02-04T06:37:08;98593.47;;;4.92;100.00
12178;BME280;6152;48.728;9.256;2023-02-04T06:39:35;98585.69;;;4.95;100.00
12178;BME280;6152;48.728;9.256;2023-02-04T06:42:01;98590.84;;;4.95;100.00
12178;BME280;6152;48.728;9.256;2023-02-04T06:44:27;98585.69;;;4.95;100.00
12178;BME280;6152;48.728;9.256;2023-02-04T06:46:53;98604.69;;;4.88;100.00
12178;BME280;6152;48.728;9.256;2023-02-04T06:49:19;98603.94;;;4.80;100.00
12178;BME280;6152;48.728;9.256;2023-02-04T06:51:45;98605.50;;;4.90;100.00
12178;BME280;6152;48.728;9.256;2023-02-04T06:54:13;98605.66;;;4.81;100.00
12178;BME280;6152;48.728;9.256;2023-02-04T06:56:39;98610.81;;;4.81;100.00
12178;BME280;6152;48.728;9.256;2023-02-04T06:59:05;98612.53;;;4.80;100.00
12178;BME280;6152;48.728;9.256;2023-02-04T07:01:31;98621.13;;;4.79;100.00
12178;BME280;6152;48.728;9.256;2023-02-04T07:03:57;98631.50;;;4.76;100.00
12178;BME280;6152;48.728;9.256;2023-02-04T07:06:23;98621.94;;;4.83;100.00
12178;BME280;6152;48.728;9.256;2023-02-04T07:08:49;98624.47;;;4.89;100.00
12178;BME280;6152;48.728;9.256;2023-02-04T07:11:16;98621.94;;;4.86;100.00
12178;BME280;6152;48.728;9.256;2023-02-04T07:13:42;98628.84;;;4.81;100.00
12178;BME280;6152;48.728;9.256;2023-02-04T07:16:08;98634.78;;;4.87;100.00
12178;BME280;6152;48.728;9.256;2023-02-04T07:18:34;98635.63;;;4.88;100.00
12178;BME280;6152;48.728;9.256;2023-02-04T07:21:00;98640.75;;;4.91;100.00
12178;BME280;6152;48.728;9.256;2023-02-04T07:23:26;98633.94;;;4.87;100.00
12178;BME280;6152;48.728;9.256;2023-02-04T07:25:53;98649.31;;;4.96;100.00
12178;BME280;6152;48.728;9.256;2023-02-04T07:28:21;98653.59;;;4.95;100.00
12178;BME280;6152;48.728;9.256;2023-02-04T07:30:47;98663.84;;;5.00;100.00
12178;BME280;6152;48.728;9.256;2023-02-04T07:33:13;98669.88;;;4.99;100.00
12178;BME280;6152;48.728;9.256;2023-02-04T07:35:39;98673.44;;;4.92;100.00
12178;BME280;6152;48.728;9.256;2023-02-04T07:38:06;98666.56;;;4.91;100.00
12178;BME280;6152;48.728;9.256;2023-02-04T07:40:32;98664.84;;;4.90;100.00
12178;BME280;6152;48.728;9.256;2023-02-04T07:42:58;98673.28;;;5.01;100.00
12178;BME280;6152;48.728;9.256;2023-02-04T07:45:24;98667.31;;;4.97;100.00
12178;BME280;6152;48.728;9.256;2023-02-04T07:47:51;98678.44;;;5.02;100.00
12178;BME280;6152;48.728;9.256;2023-02-04T07:50:17;98676.72;;;5.01;100.00
12178;BME280;6152;48.728;9.256;2023-02-04T07:52:43;98683.56;;;5.04;100.00
12178;BME280;6152;48.728;9.256;2023-02-04T07:55:09;98681.03;;;5.02;100.00
12178;BME280;6152;48.728;9.256;2023-02-04T07:57:35;98687.94;;;4.99;100.00
12178;BME280;6152;48.728;9.256;2023-02-04T08:00:02;98689.59;;;5.04;100.00
12178;BME280;6152;48.728;9.256;2023-02-04T08:02:28;98687.72;;;5.17;100.00
12178;BME280;6152;48.728;9.256;2023-02-04T08:04:54;98694.69;;;5.09;100.00
12178;BME280;6152;48.728;9.256;2023-02-04T08:07:20;98699.03;;;5.05;100.00
12178;BME280;6152;48.728;9.256;2023-02-04T08:09:46;98706.84;;;5.01;100.00
12178;BME280;6152;48.728;9.256;2023-02-04T08:12:12;98710.31;;;4.98;100.00
12178;BME280;6152;48.728;9.256;2023-02-04T08:14:38;98705.09;;;5.03;100.00
12178;BME280;6152;48.728;9.256;2023-02-04T08:17:04;98718.00;;;5.00;100.00
12178;BME280;6152;48.728;9.256;2023-02-04T08:19:30;98716.28;;;5.02;100.00
12178;BME280;6152;48.728;9.256;2023-02-04T08:21:56;98714.47;;;5.07;100.00
12178;BME280;6152;48.728;9.256;2023-02-04T08:24:23;98711.00;;;5.11;100.00
12178;BME280;6152;48.728;9.256;2023-02-04T08:26:51;98712.63;;;5.18;100.00
12178;BME280;6152;48.728;9.256;2023-02-04T08:29:18;98717.69;;;5.24;100.00
12178;BME280;6152;48.728;9.256;2023-02-04T08:31:45;98726.34;;;5.23;100.00
12178;BME280;6152;48.728;9.256;2023-02-04T08:34:12;98728.81;;;5.29;100.00
12178;BME280;6152;48.728;9.256;2023-02-04T08:36:38;98731.41;;;5.29;100.00
12178;BME280;6152;48.728;9.256;2023-02-04T08:39:05;98724.47;;;5.31;100.00
12178;BME280;6152;48.728;9.256;2023-02-04T08:41:31;98737.38;;;5.33;100.00
12178;BME280;6152;48.728;9.256;2023-02-04T08:43:58;98737.28;;;5.40;100.00
12178;BME280;6152;48.728;9.256;2023-02-04T08:46:24;98738.06;;;5.45;100.00
12178;BME280;6152;48.728;9.256;2023-02-04T08:48:50;98739.66;;;5.52;100.00
12178;BME280;6152;48.728;9.256;2023-02-04T08:51:16;98739.72;;;5.49;100.00
12178;BME280;6152;48.728;9.256;2023-02-04T08:53:43;98744.78;;;5.55;100.00
12178;BME280;6152;48.728;9.256;2023-02-04T08:56:09;98738.66;;;5.63;100.00
12178;BME280;6152;48.728;9.256;2023-02-04T08:58:35;98748.06;;;5.67;100.00
12178;BME280;6152;48.728;9.256;2023-02-04T09:01:01;98742.84;;;5.71;100.00
12178;BME280;6152;48.728;9.256;2023-02-04T09:03:27;98757.44;;;5.74;100.00
12178;BME280;6152;48.728;9.256;2023-02-04T09:05:54;98768.47;;;5.85;100.00
12178;BME280;6152;48.728;9.256;2023-02-04T09:08:20;98763.72;;;6.14;100.00
12178;BME280;6152;48.728;9.256;2023-02-04T09:10:46;98760.94;;;6.26;100.00
12178;BME280;6152;48.728;9.256;2023-02-04T09:13:12;98758.97;;;6.40;100.00
12178;BME280;6152;48.728;9.256;2023-02-04T09:15:39;98765.81;;;6.41;100.00
12178;BME280;6152;48.728;9.256;2023-02-04T09:18:05;98771.72;;;6.49;100.00
12178;BME280;6152;48.728;9.256;2023-02-04T09:20:39;98762.84;;;6.63;100.00
12178;BME280;6152;48.728;9.256;2023-02-04T09:23:05;98767.09;;;6.67;100.00
12178;BME280;6152;48.728;9.256;2023-02-04T09:25:34;98766.16;;;6.71;100.00
12178;BME280;6152;48.728;9.256;2023-02-04T09:28:00;98774.94;;;6.62;100.00
12178;BME280;6152;48.728;9.256;2023-02-04T09:30:26;98777.31;;;6.76;100.00
12178;BME280;6152;48.728;9.256;2023-02-04T09:32:52;98775.94;;;7.01;100.00
12178;BME280;6152;48.728;9.256;2023-02-04T09:35:18;98793.38;;;7.34;100.00
12178;BME280;6152;48.728;9.256;2023-02-04T09:37:44;98793.59;;;7.65;100.00
12178;BME280;6152;48.728;9.256;2023-02-04T09:40:15;98808.69;;;7.85;100.00
12178;BME280;6152;48.728;9.256;2023-02-04T09:42:47;98803.91;;;8.03;100.00
12178;BME280;6152;48.728;9.256;2023-02-04T09:45:23;98803.06;;;8.74;100.00
12178;BME280;6152;48.728;9.256;2023-02-04T09:47:52;98793.22;;;10.31;100.00
12178;BME280;6152;48.728;9.256;2023-02-04T09:50:21;98802.53;;;11.84;100.00
12178;BME280;6152;48.728;9.256;2023-02-04T09:52:50;98799.66;;;13.36;89.24
12178;BME280;6152;48.728;9.256;2023-02-04T09:55:19;98788.97;;;14.34;65.97
12178;BME280;6152;48.728;9.256;2023-02-04T09:57:46;98794.41;;;15.81;58.63
12178;BME280;6152;48.728;9.256;2023-02-04T10:00:20;98792.00;;;16.98;48.88
12178;BME280;6152;48.728;9.256;2023-02-04T10:02:47;98779.03;;;18.21;47.29
12178;BME280;6152;48.728;9.256;2023-02-04T10:05:27;98770.97;;;19.03;41.64
12178;BME280;6152;48.728;9.256;2023-02-04T10:07:53;98784.91;;;18.39;42.56
12178;BME280;6152;48.728;9.256;2023-02-04T10:10:21;98783.06;;;16.57;42.97
12178;BME280;6152;48.728;9.256;2023-02-04T10:12:52;98784.25;;;14.40;46.98
12178;BME280;6152;48.728;9.256;2023-02-04T10:15:20;98775.53;;;14.04;48.24
12178;BME280;6152;48.728;9.256;2023-02-04T10:17:52;98778.03;;;14.77;50.33
12178;BME280;6152;48.728;9.256;2023-02-04T10:20:22;98765.94;;;15.07;49.03
12178;BME280;6152;48.728;9.256;2023-02-04T10:22:51;98771.72;;;14.28;51.98
12178;BME280;6152;48.728;9.256;2023-02-04T10:25:22;98773.44;;;16.10;49.67
12178;BME280;6152;48.728;9.256;2023-02-04T10:27:56;98769.00;;;18.13;45.05
12178;BME280;6152;48.728;9.256;2023-02-04T10:30:29;98765.44;;;18.93;43.50
12178;BME280;6152;48.728;9.256;2023-02-04T10:32:58;98769.84;;;18.14;41.24
12178;BME280;6152;48.728;9.256;2023-02-04T10:35:25;98777.25;;;16.96;43.18
12178;BME280;6152;48.728;9.256;2023-02-04T10:38:05;98766.88;;;15.39;46.17
12178;BME280;6152;48.728;9.256;2023-02-04T10:40:34;98756.09;;;15.77;46.62
12178;BME280;6152;48.728;9.256;2023-02-04T10:43:13;98761.94;;;16.58;45.13
12178;BME280;6152;48.728;9.256;2023-02-04T10:45:45;98767.47;;;14.96;45.14
12178;BME280;6152;48.728;9.256;2023-02-04T10:48:18;98758.50;;;13.95;47.81
12178;BME280;6152;48.728;9.256;2023-02-04T10:50:46;98758.41;;;12.63;51.30
12178;BME280;6152;48.728;9.256;2023-02-04T10:53:16;98764.22;;;11.39;55.76
12178;BME280;6152;48.728;9.256;2023-02-04T10:56:02;98771.94;;;10.45;64.16
12178;BME280;6152;48.728;9.256;2023-02-04T10:58:30;98761.75;;;10.11;71.70
12178;BME280;6152;48.728;9.256;2023-02-04T11:00:56;98771.81;;;9.68;78.98
12178;BME280;6152;48.728;9.256;2023-02-04T11:03:29;98765.28;;;9.25;84.34
12178;BME280;6152;48.728;9.256;2023-02-04T11:05:57;98779.72;;;9.04;89.08
12178;BME280;6152;48.728;9.256;2023-02-04T11:08:33;98763.34;;;8.70;91.95
12178;BME280;6152;48.728;9.256;2023-02-04T11:11:14;98763.06;;;8.48;93.11
12178;BME280;6152;48.728;9.256;2023-02-04T11:21:40;98775.19;;;8.12;96.49
12178;BME280;6152;48.728;9.256;2023-02-04T11:26:43;98767.59;;;8.05;98.76
12178;BME280;6152;48.728;9.256;2023-02-04T11:29:26;98777.31;;;8.32;98.37
12178;BME280;6152;48.728;9.256;2023-02-04T11:32:32;98778.31;;;8.60;96.34
12178;BME280;6152;48.728;9.256;2023-02-04T11:34:51;98774.25;;;8.83;94.14
12178;BME280;6152;48.728;9.256;2023-02-04T11:37:28;98765.66;;;9.70;89.32
12178;BME280;6152;48.728;9.256;2023-02-04T11:39:59;98760.97;;;12.01;74.80
12178;BME280;6152;48.728;9.256;2023-02-04T11:42:41;98757.34;;;15.21;53.68
12178;BME280;6152;48.728;9.256;2023-02-04T11:45:16;98751.50;;;16.27;49.07
12178;BME280;6152;48.728;9.256;2023-02-04T11:47:45;98758.25;;;16.91;46.38
12178;BME280;6152;48.728;9.256;2023-02-04T11:50:32;98764.09;;;16.82;46.47
12178;BME280;6152;48.728;9.256;2023-02-04T11:53:00;98757.06;;;16.37;45.18
12178;BME280;6152;48.728;9.256;2023-02-04T11:55:36;98759.25;;;15.68;47.38
12178;BME280;6152;48.728;9.256;2023-02-04T11:58:14;98761.59;;;14.74;49.26
12178;BME280;6152;48.728;9.256;2023-02-04T12:00:41;98763.25;;;13.31;52.68
12178;BME280;6152;48.728;9.256;2023-02-04T12:05:55;98766.47;;;11.48;60.33
12178;BME280;6152;48.728;9.256;2023-02-04T12:13:44;98769.41;;;9.32;83.47
12178;BME280;6152;48.728;9.256;2023-02-04T12:16:11;98773.53;;;8.78;89.28
12178;BME280;6152;48.728;9.256;2023-02-04T12:18:37;98777.31;;;8.32;92.76
12178;BME280;6152;48.728;9.256;2023-02-04T12:21:04;98778.78;;;8.42;94.29
12178;BME280;6152;48.728;9.256;2023-02-04T12:23:30;98775.16;;;8.49;91.27
12178;BME280;6152;48.728;9.256;2023-02-04T12:25:56;98781.41;;;8.75;89.53
12178;BME280;6152;48.728;9.256;2023-02-04T12:28:23;98778.78;;;9.65;84.30
12178;BME280;6152;48.728;9.256;2023-02-04T12:30:49;98770.91;;;11.93;69.20
12178;BME280;6152;48.728;9.256;2023-02-04T12:33:15;98778.22;;;14.02;58.08
12178;BME280;6152;48.728;9.256;2023-02-04T12:35:41;98777.63;;;15.99;49.76
12178;BME280;6152;48.728;9.256;2023-02-04T12:38:08;98771.66;;;17.58;44.04
12178;BME280;6152;48.728;9.256;2023-02-04T12:40:35;98770.84;;;18.92;40.66
12178;BME280;6152;48.728;9.256;2023-02-04T12:43:01;98766.19;;;19.08;40.00
12178;BME280;6152;48.728;9.256;2023-02-04T12:45:27;98779.19;;;17.79;39.65
12178;BME280;6152;48.728;9.256;2023-02-04T12:47:54;98769.34;;;17.95;40.82
12178;BME280;6152;48.728;9.256;2023-02-04T12:50:20;98769.75;;;17.89;39.65
12178;BME280;6152;48.728;9.256;2023-02-04T12:52:55;98772.53;;;15.80;40.99
12178;BME280;6152;48.728;9.256;2023-02-04T12:55:22;98770.97;;;14.26;45.56
12178;BME280;6152;48.728;9.256;2023-02-04T12:57:49;98777.41;;;13.46;48.30
12178;BME280;6152;48.728;9.256;2023-02-04T13:00:16;98769.88;;;12.79;51.34
12178;BME280;6152;48.728;9.256;2023-02-04T13:02:46;98772.88;;;12.08;53.90
12178;BME280;6152;48.728;9.256;2023-02-04T13:05:13;98781.63;;;11.39;56.38
12178;BME280;6152;48.728;9.256;2023-02-04T13:07:40;98780.38;;;10.78;61.65
12178;BME280;6152;48.728;9.256;2023-02-04T13:10:08;98784.03;;;10.97;62.80
12178;BME280;6152;48.728;9.256;2023-02-04T13:12:34;98774.94;;;12.22;58.37
12178;BME280;6152;48.728;9.256;2023-02-04T13:15:00;98777.56;;;13.61;52.62
12178;BME280;6152;48.728;9.256;2023-02-04T13:17:26;98775.84;;;13.03;52.41
12178;BME280;6152;48.728;9.256;2023-02-04T13:19:53;98772.97;;;12.89;53.20
12178;BME280;6152;48.728;9.256;2023-02-04T13:22:19;98771.50;;;13.22;53.55
12178;BME280;6152;48.728;9.256;2023-02-04T13:24:45;98776.56;;;13.64;50.41
12178;BME280;6152;48.728;9.256;2023-02-04T13:27:11;98776.84;;;13.77;50.10
12178;BME280;6152;48.728;9.256;2023-02-04T13:29:37;98775.13;;;13.38;50.96
12178;BME280;6152;48.728;9.256;2023-02-04T13:32:03;98784.66;;;12.60;51.44